sensor_id;sensor_type;location;lat;lon;timestamp;pressure;altitude;pressure_sealevel;temperature;humidity
71638;BME280;59485;43.542;-5.676;2023-04-22T00:00:49;100615.44;;;12.91;100.00
71638;BME280;59485;43.542;-5.676;2023-04-22T00:03:14;100611.59;;;12.72;100.00
71638;BME280;59485;43.542;-5.676;2023-04-22T00:05:40;100628.13;;;12.78;100.00
71638;BME280;59485;43.542;-5.676;2023-04-22T00:08:06;100645.47;;;12.79;100.00
71638;BME280;59485;43.542;-5.676;2023-04-22T00:10:32;100636.59;;;12.77;100.00
71638;BME280;59485;43.542;-5.676;2023-04-22T00:12:58;100627.69;;;12.75;100.00
71638;BME280;59485;43.542;-5.676;2023-04-22T00:15:23;100641.44;;;12.82;100.00
71638;BME280;59485;43.542;-5.676;2023-04-22T00:17:50;100638.50;;;12.83;100.00
71638;BME280;59485;43.542;-5.676;2023-04-22T00:20:19;100648.88;;;12.88;100.00
71638;BME280;59485;43.542;-5.676;2023-04-22T00:22:47;100633.00;;;12.83;100.00
71638;BME280;59485;43.542;-5.676;2023-04-22T00:25:13;100640.41;;;12.89;100.00
71638;BME280;59485;43.542;-5.676;2023-04-22T00:27:38;100640.44;;;13.02;100.00
71638;BME280;59485;43.542;-5.676;2023-04-22T00:30:05;100647.00;;;12.95;100.00
71638;BME280;59485;43.542;-5.676;2023-04-22T00:32:30;100637.72;;;13.29;100.00
71638;BME280;59485;43.542;-5.676;2023-04-22T00:34:56;100643.88;;;13.31;100.00
71638;BME280;59485;43.542;-5.676;2023-04-22T00:37:23;100619.31;;;13.23;100.00
71638;BME280;59485;43.542;-5.676;2023-04-22T00:39:48;100618.03;;;13.19;100.00
71638;BME280;59485;43.542;-5.676;2023-04-22T00:42:15;100643.66;;;13.26;100.00
71638;BME280;59485;43.542;-5.676;2023-04-22T00:44:41;100644.69;;;13.11;100.00
71638;BME280;59485;43.542;-5.676;2023-04-22T00:47:08;100648.50;;;13.04;100.00
71638;BME280;59485;43.542;-5.676;2023-04-22T00:49:34;100638.75;;;13.01;100.00
71638;BME280;59485;43.542;-5.676;2023-04-22T00:52:00;100649.94;;;13.06;100.00
71638;BME280;59485;43.542;-5.676;2023-04-22T00:54:26;100651.63;;;12.88;100.00
71638;BME280;59485;43.542;-5.676;2023-04-22T00:56:53;100663.91;;;12.85;100.00
71638;BME280;59485;43.542;-5.676;2023-04-22T00:59:19;100662.00;;;12.86;100.00
71638;BME280;59485;43.542;-5.676;2023-04-22T01:01:45;100636.78;;;12.69;100.00
71638;BME280;59485;43.542;-5.676;2023-04-22T01:04:11;100636.97;;;12.61;100.00
71638;BME280;59485;43.542;-5.676;2023-04-22T01:06:39;100636.13;;;12.60;100.00
71638;BME280;59485;43.542;-5.676;2023-04-22T01:09:06;100661.75;;;12.74;100.00
71638;BME280;59485;43.542;-5.676;2023-04-22T01:11:33;100665.75;;;12.71;100.00
71638;BME280;59485;43.542;-5.676;2023-04-22T01:13:59;100664.03;;;12.64;100.00
71638;BME280;59485;43.542;-5.676;2023-04-22T01:16:25;100658.97;;;12.61;100.00
71638;BME280;59485;43.542;-5.676;2023-04-22T01:18:53;100659.38;;;12.58;100.00
71638;BME280;59485;43.542;-5.676;2023-04-22T01:21:19;100651.31;;;12.50;100.00
71638;BME280;59485;43.542;-5.676;2023-04-22T01:23:44;100653.63;;;12.53;100.00
71638;BME280;59485;43.542;-5.676;2023-04-22T01:26:10;100654.06;;;12.50;100.00
71638;BME280;59485;43.542;-5.676;2023-04-22T01:28:36;100664.41;;;12.48;100.00
71638;BME280;59485;43.542;-5.676;2023-04-22T01:31:02;100652.16;;;12.44;100.00
71638;BME280;59485;43.542;-5.676;2023-04-22T01:33:28;100675.50;;;12.67;100.00
71638;BME280;59485;43.542;-5.676;2023-04-22T01:35:53;100679.28;;;12.66;100.00
71638;BME280;59485;43.542;-5.676;2023-04-22T01:38:19;100640.50;;;12.42;100.00
71638;BME280;59485;43.542;-5.676;2023-04-22T01:40:45;100682.44;;;12.63;100.00
71638;BME280;59485;43.542;-5.676;2023-04-22T01:43:10;100650.66;;;12.41;100.00
71638;BME280;59485;43.542;-5.676;2023-04-22T01:45:36;100683.91;;;12.59;100.00
71638;BME280;59485;43.542;-5.676;2023-04-22T01:48:03;100676.72;;;12.52;100.00
71638;BME280;59485;43.542;-5.676;2023-04-22T01:50:31;100638.13;;;12.25;100.00
71638;BME280;59485;43.542;-5.676;2023-04-22T01:53:00;100679.47;;;12.52;100.00
71638;BME280;59485;43.542;-5.676;2023-04-22T01:55:26;100665.84;;;12.37;100.00
71638;BME280;59485;43.542;-5.676;2023-04-22T01:57:51;100659.03;;;12.26;100.00
71638;BME280;59485;43.542;-5.676;2023-04-22T02:00:17;100649.94;;;12.26;100.00
71638;BME280;59485;43.542;-5.676;2023-04-22T02:02:42;100654.38;;;12.27;100.00
71638;BME280;59485;43.542;-5.676;2023-04-22T02:05:08;100684.91;;;12.45;100.00
71638;BME280;59485;43.542;-5.676;2023-04-22T02:07:34;100674.09;;;12.37;100.00
71638;BME280;59485;43.542;-5.676;2023-04-22T02:10:04;100677.50;;;12.39;100.00
71638;BME280;59485;43.542;-5.676;2023-04-22T02:12:30;100683.63;;;12.41;100.00
71638;BME280;59485;43.542;-5.676;2023-04-22T02:14:56;100684.91;;;12.45;100.00
71638;BME280;59485;43.542;-5.676;2023-04-22T02:17:22;100687.19;;;12.35;100.00
71638;BME280;59485;43.542;-5.676;2023-04-22T02:19:47;100672.09;;;12.18;100.00
71638;BME280;59485;43.542;-5.676;2023-04-22T02:22:13;100700.03;;;12.28;100.00
71638;BME280;59485;43.542;-5.676;2023-04-22T02:24:38;100681.81;;;12.20;100.00
71638;BME280;59485;43.542;-5.676;2023-04-22T02:27:04;100681.44;;;12.23;100.00
71638;BME280;59485;43.542;-5.676;2023-04-22T02:29:30;100692.47;;;12.36;100.00
71638;BME280;59485;43.542;-5.676;2023-04-22T02:32:06;100647.91;;;12.00;100.00
71638;BME280;59485;43.542;-5.676;2023-04-22T02:34:31;100709.78;;;12.24;100.00
71638;BME280;59485;43.542;-5.676;2023-04-22T02:36:57;100708.88;;;12.17;100.00
71638;BME280;59485;43.542;-5.676;2023-04-22T02:39:22;100682.06;;;11.91;100.00
71638;BME280;59485;43.542;-5.676;2023-04-22T02:41:48;100686.97;;;11.95;100.00
71638;BME280;59485;43.542;-5.676;2023-04-22T02:44:13;100688.00;;;11.88;100.00
71638;BME280;59485;43.542;-5.676;2023-04-22T02:46:39;100716.16;;;11.96;100.00
71638;BME280;59485;43.542;-5.676;2023-04-22T02:49:04;100720.75;;;11.89;100.00
71638;BME280;59485;43.542;-5.676;2023-04-22T02:51:31;100712.59;;;11.75;100.00
71638;BME280;59485;43.542;-5.676;2023-04-22T02:53:57;100712.53;;;11.68;100.00
71638;BME280;59485;43.542;-5.676;2023-04-22T02:56:22;100677.66;;;11.41;100.00
71638;BME280;59485;43.542;-5.676;2023-04-22T02:58:48;100706.31;;;11.59;100.00
71638;BME280;59485;43.542;-5.676;2023-04-22T03:01:13;100708.22;;;11.59;100.00
71638;BME280;59485;43.542;-5.676;2023-04-22T03:03:39;100732.41;;;11.70;100.00
71638;BME280;59485;43.542;-5.676;2023-04-22T03:06:06;100711.97;;;11.51;100.00
71638;BME280;59485;43.542;-5.676;2023-04-22T03:08:31;100711.44;;;11.62;100.00
71638;BME280;59485;43.542;-5.676;2023-04-22T03:10:57;100689.63;;;11.33;100.00
71638;BME280;59485;43.542;-5.676;2023-04-22T03:13:22;100723.09;;;11.43;100.00
71638;BME280;59485;43.542;-5.676;2023-04-22T03:15:47;100727.53;;;11.44;100.00
71638;BME280;59485;43.542;-5.676;2023-04-22T03:18:13;100721.06;;;11.31;100.00
71638;BME280;59485;43.542;-5.676;2023-04-22T03:20:38;100707.00;;;11.19;100.00
71638;BME280;59485;43.542;-5.676;2023-04-22T03:23:04;100723.75;;;11.24;100.00
71638;BME280;59485;43.542;-5.676;2023-04-22T03:25:31;100752.56;;;11.35;100.00
71638;BME280;59485;43.542;-5.676;2023-04-22T03:27:57;100751.91;;;11.33;100.00
71638;BME280;59485;43.542;-5.676;2023-04-22T03:30:22;100752.09;;;11.31;100.00
71638;BME280;59485;43.542;-5.676;2023-04-22T03:32:48;100728.50;;;11.15;100.00
71638;BME280;59485;43.542;-5.676;2023-04-22T03:35:13;100751.38;;;11.22;100.00
71638;BME280;59485;43.542;-5.676;2023-04-22T03:37:39;100737.31;;;11.11;100.00
71638;BME280;59485;43.542;-5.676;2023-04-22T03:40:05;100737.72;;;11.08;100.00
71638;BME280;59485;43.542;-5.676;2023-04-22T03:42:31;100737.91;;;11.06;100.00
71638;BME280;59485;43.542;-5.676;2023-04-22T03:44:57;100736.69;;;11.09;100.00
71638;BME280;59485;43.542;-5.676;2023-04-22T03:47:22;100737.44;;;11.03;100.00
71638;BME280;59485;43.542;-5.676;2023-04-22T03:49:48;100737.84;;;11.00;100.00
71638;BME280;59485;43.542;-5.676;2023-04-22T03:52:13;100756.25;;;11.06;100.00
71638;BME280;59485;43.542;-5.676;2023-04-22T03:54:39;100753.22;;;11.01;100.00
71638;BME280;59485;43.542;-5.676;2023-04-22T03:57:05;100735.59;;;10.88;100.00
71638;BME280;59485;43.542;-5.676;2023-04-22T03:59:30;100743.63;;;10.90;100.00
71638;BME280;59485;43.542;-5.676;2023-04-22T04:01:56;100745.78;;;10.95;100.00
71638;BME280;59485;43.542;-5.676;2023-04-22T04:04:21;100734.84;;;11.16;100.00
71638;BME280;59485;43.542;-5.676;2023-04-22T04:06:48;100744.91;;;11.09;100.00
71638;BME280;59485;43.542;-5.676;2023-04-22T04:09:13;100755.09;;;11.15;100.00
71638;BME280;59485;43.542;-5.676;2023-04-22T04:11:39;100729.22;;;11.03;100.00
71638;BME280;59485;43.542;-5.676;2023-04-22T04:14:04;100733.72;;;11.10;100.00
71638;BME280;59485;43.542;-5.676;2023-04-22T04:16:30;100754.09;;;11.01;100.00
71638;BME280;59485;43.542;-5.676;2023-04-22T04:18:55;100734.56;;;10.89;100.00
71638;BME280;59485;43.542;-5.676;2023-04-22T04:21:21;100733.66;;;10.82;100.00
71638;BME280;59485;43.542;-5.676;2023-04-22T04:23:46;100732.56;;;10.83;100.00
71638;BME280;59485;43.542;-5.676;2023-04-22T04:26:12;100722.56;;;10.76;100.00
71638;BME280;59485;43.542;-5.676;2023-04-22T04:28:40;100746.69;;;10.80;100.00
71638;BME280;59485;43.542;-5.676;2023-04-22T04:31:06;100762.25;;;10.95;100.00
71638;BME280;59485;43.542;-5.676;2023-04-22T04:33:31;100763.22;;;10.87;100.00
71638;BME280;59485;43.542;-5.676;2023-04-22T04:35:57;100775.81;;;10.81;100.00
71638;BME280;59485;43.542;-5.676;2023-04-22T04:38:24;100762.78;;;10.69;100.00
71638;BME280;59485;43.542;-5.676;2023-04-22T04:40:50;100777.34;;;10.69;100.00
71638;BME280;59485;43.542;-5.676;2023-04-22T04:43:16;100742.75;;;10.53;100.00
71638;BME280;59485;43.542;-5.676;2023-04-22T04:45:43;100751.09;;;10.45;100.00
71638;BME280;59485;43.542;-5.676;2023-04-22T04:48:13;100751.28;;;10.44;100.00
71638;BME280;59485;43.542;-5.676;2023-04-22T04:50:42;100773.78;;;10.54;100.00
71638;BME280;59485;43.542;-5.676;2023-04-22T04:53:11;100747.38;;;10.38;100.00
71638;BME280;59485;43.542;-5.676;2023-04-22T04:55:37;100747.59;;;10.37;100.00
71638;BME280;59485;43.542;-5.676;2023-04-22T04:58:03;100772.16;;;10.45;100.00
71638;BME280;59485;43.542;-5.676;2023-04-22T05:00:28;100762.25;;;10.44;100.00
71638;BME280;59485;43.542;-5.676;2023-04-22T05:02:54;100768.16;;;10.47;100.00
71638;BME280;59485;43.542;-5.676;2023-04-22T05:05:20;100765.66;;;10.46;100.00
71638;BME280;59485;43.542;-5.676;2023-04-22T05:07:45;100743.84;;;10.38;100.00
71638;BME280;59485;43.542;-5.676;2023-04-22T05:10:11;100740.41;;;10.50;100.00
71638;BME280;59485;43.542;-5.676;2023-04-22T05:12:36;100745.78;;;10.59;100.00
71638;BME280;59485;43.542;-5.676;2023-04-22T05:15:02;100740.69;;;10.41;100.00
71638;BME280;59485;43.542;-5.676;2023-04-22T05:17:28;100744.38;;;10.33;100.00
71638;BME280;59485;43.542;-5.676;2023-04-22T05:19:53;100731.16;;;10.22;100.00
71638;BME280;59485;43.542;-5.676;2023-04-22T05:22:19;100770.66;;;10.42;100.00
71638;BME280;59485;43.542;-5.676;2023-04-22T05:24:44;100771.78;;;10.33;100.00
71638;BME280;59485;43.542;-5.676;2023-04-22T05:27:10;100773.28;;;10.50;100.00
71638;BME280;59485;43.542;-5.676;2023-04-22T05:29:36;100796.44;;;10.48;100.00
71638;BME280;59485;43.542;-5.676;2023-04-22T05:32:01;100732.75;;;10.16;100.00
71638;BME280;59485;43.542;-5.676;2023-04-22T05:34:30;100733.28;;;10.12;100.00
71638;BME280;59485;43.542;-5.676;2023-04-22T05:36:55;100763.19;;;10.22;100.00
71638;BME280;59485;43.542;-5.676;2023-04-22T05:39:21;100810.91;;;10.42;100.00
71638;BME280;59485;43.542;-5.676;2023-04-22T05:41:46;100808.16;;;10.42;100.00
71638;BME280;59485;43.542;-5.676;2023-04-22T05:44:12;100814.22;;;10.37;100.00
71638;BME280;59485;43.542;-5.676;2023-04-22T05:46:38;100808.44;;;10.32;100.00
71638;BME280;59485;43.542;-5.676;2023-04-22T05:49:03;100831.97;;;10.41;100.00
71638;BME280;59485;43.542;-5.676;2023-04-22T05:51:29;100812.69;;;10.35;100.00
71638;BME280;59485;43.542;-5.676;2023-04-22T05:53:55;100827.06;;;10.37;100.00
71638;BME280;59485;43.542;-5.676;2023-04-22T05:56:20;100835.66;;;10.48;100.00
71638;BME280;59485;43.542;-5.676;2023-04-22T05:58:46;100850.31;;;10.70;100.00
71638;BME280;59485;43.542;-5.676;2023-04-22T06:01:12;100837.28;;;10.72;100.00
71638;BME280;59485;43.542;-5.676;2023-04-22T06:03:38;100824.97;;;10.68;100.00
71638;BME280;59485;43.542;-5.676;2023-04-22T06:06:04;100843.41;;;10.74;100.00
71638;BME280;59485;43.542;-5.676;2023-04-22T06:08:30;100863.06;;;10.78;100.00
71638;BME280;59485;43.542;-5.676;2023-04-22T06:10:56;100832.63;;;10.58;100.00
71638;BME280;59485;43.542;-5.676;2023-04-22T06:13:22;100868.06;;;10.74;100.00
71638;BME280;59485;43.542;-5.676;2023-04-22T06:15:47;100856.56;;;10.64;100.00
71638;BME280;59485;43.542;-5.676;2023-04-22T06:18:13;100846.63;;;10.48;100.00
71638;BME280;59485;43.542;-5.676;2023-04-22T06:20:38;100866.38;;;10.59;100.00
71638;BME280;59485;43.542;-5.676;2023-04-22T06:23:04;100873.56;;;10.74;100.00
71638;BME280;59485;43.542;-5.676;2023-04-22T06:25:31;100875.44;;;10.74;100.00
71638;BME280;59485;43.542;-5.676;2023-04-22T06:27:59;100858.25;;;10.65;100.00
71638;BME280;59485;43.542;-5.676;2023-04-22T06:30:25;100885.28;;;10.68;100.00
71638;BME280;59485;43.542;-5.676;2023-04-22T06:32:51;100875.44;;;10.59;100.00
71638;BME280;59485;43.542;-5.676;2023-04-22T06:35:17;100878.09;;;10.52;100.00
71638;BME280;59485;43.542;-5.676;2023-04-22T06:37:43;100891.53;;;10.62;100.00
71638;BME280;59485;43.542;-5.676;2023-04-22T06:40:09;100874.41;;;10.60;100.00
71638;BME280;59485;43.542;-5.676;2023-04-22T06:42:34;100880.94;;;10.59;100.00
71638;BME280;59485;43.542;-5.676;2023-04-22T06:45:00;100874.88;;;10.49;100.00
71638;BME280;59485;43.542;-5.676;2023-04-22T06:47:25;100902.69;;;10.75;100.00
71638;BME280;59485;43.542;-5.676;2023-04-22T06:49:52;100901.81;;;10.75;100.00
71638;BME280;59485;43.542;-5.676;2023-04-22T06:52:17;100899.66;;;10.70;100.00
71638;BME280;59485;43.542;-5.676;2023-04-22T06:54:42;100873.56;;;10.60;100.00
71638;BME280;59485;43.542;-5.676;2023-04-22T06:57:08;100896.38;;;10.89;100.00
71638;BME280;59485;43.542;-5.676;2023-04-22T06:59:33;100860.34;;;10.63;100.00
71638;BME280;59485;43.542;-5.676;2023-04-22T07:01:59;100895.41;;;10.97;100.00
71638;BME280;59485;43.542;-5.676;2023-04-22T07:04:24;100881.63;;;10.90;100.00
71638;BME280;59485;43.542;-5.676;2023-04-22T07:06:51;100901.06;;;11.10;100.00
71638;BME280;59485;43.542;-5.676;2023-04-22T07:09:17;100913.06;;;11.24;100.00
71638;BME280;59485;43.542;-5.676;2023-04-22T07:11:43;100911.91;;;11.33;100.00
71638;BME280;59485;43.542;-5.676;2023-04-22T07:14:08;100894.13;;;11.29;100.00
71638;BME280;59485;43.542;-5.676;2023-04-22T07:16:34;100897.78;;;11.51;100.00
71638;BME280;59485;43.542;-5.676;2023-04-22T07:19:01;100881.69;;;11.48;100.00
71638;BME280;59485;43.542;-5.676;2023-04-22T07:21:26;100911.31;;;11.74;100.00
71638;BME280;59485;43.542;-5.676;2023-04-22T07:23:52;100904.53;;;11.70;100.00
71638;BME280;59485;43.542;-5.676;2023-04-22T07:26:17;100884.91;;;11.73;100.00
71638;BME280;59485;43.542;-5.676;2023-04-22T07:28:43;100903.94;;;11.89;100.00
71638;BME280;59485;43.542;-5.676;2023-04-22T07:31:09;100909.34;;;11.82;100.00
71638;BME280;59485;43.542;-5.676;2023-04-22T07:33:35;100915.56;;;11.91;100.00
71638;BME280;59485;43.542;-5.676;2023-04-22T07:36:00;100904.84;;;11.96;100.00
71638;BME280;59485;43.542;-5.676;2023-04-22T07:38:26;100917.06;;;11.93;100.00
71638;BME280;59485;43.542;-5.676;2023-04-22T07:40:51;100909.09;;;11.98;100.00
71638;BME280;59485;43.542;-5.676;2023-04-22T07:43:17;100920.81;;;12.07;100.00
71638;BME280;59485;43.542;-5.676;2023-04-22T07:45:43;100909.75;;;12.00;100.00
71638;BME280;59485;43.542;-5.676;2023-04-22T07:48:08;100913.06;;;12.17;100.00
71638;BME280;59485;43.542;-5.676;2023-04-22T07:50:34;100928.06;;;12.15;100.00
71638;BME280;59485;43.542;-5.676;2023-04-22T07:53:00;100872.53;;;11.77;100.00
71638;BME280;59485;43.542;-5.676;2023-04-22T07:55:25;100932.25;;;12.11;100.00
71638;BME280;59485;43.542;-5.676;2023-04-22T07:57:51;100934.19;;;12.38;100.00
71638;BME280;59485;43.542;-5.676;2023-04-22T08:00:16;100930.50;;;12.24;100.00
71638;BME280;59485;43.542;-5.676;2023-04-22T08:02:42;100926.56;;;12.61;100.00
71638;BME280;59485;43.542;-5.676;2023-04-22T08:05:08;100898.22;;;12.33;100.00
71638;BME280;59485;43.542;-5.676;2023-04-22T08:07:34;100917.47;;;12.61;100.00
71638;BME280;59485;43.542;-5.676;2023-04-22T08:09:59;100924.53;;;12.70;100.00
71638;BME280;59485;43.542;-5.676;2023-04-22T08:12:25;100919.19;;;12.96;100.00
71638;BME280;59485;43.542;-5.676;2023-04-22T08:14:54;100921.16;;;13.09;100.00
71638;BME280;59485;43.542;-5.676;2023-04-22T08:17:19;100916.50;;;13.09;100.00
71638;BME280;59485;43.542;-5.676;2023-04-22T08:19:47;100914.03;;;13.14;100.00
71638;BME280;59485;43.542;-5.676;2023-04-22T08:22:13;100917.22;;;13.18;100.00
71638;BME280;59485;43.542;-5.676;2023-04-22T08:24:38;100925.91;;;13.22;100.00
71638;BME280;59485;43.542;-5.676;2023-04-22T08:27:04;100913.03;;;13.29;100.00
71638;BME280;59485;43.542;-5.676;2023-04-22T08:29:30;100931.94;;;13.45;100.00
71638;BME280;59485;43.542;-5.676;2023-04-22T08:31:55;100927.31;;;13.52;100.00
71638;BME280;59485;43.542;-5.676;2023-04-22T08:34:21;100925.00;;;13.49;100.00
71638;BME280;59485;43.542;-5.676;2023-04-22T08:36:46;100928.16;;;13.46;100.00
71638;BME280;59485;43.542;-5.676;2023-04-22T08:39:12;100906.59;;;13.63;100.00
71638;BME280;59485;43.542;-5.676;2023-04-22T08:41:38;100880.50;;;13.52;100.00
71638;BME280;59485;43.542;-5.676;2023-04-22T08:44:03;100913.88;;;13.97;100.00
71638;BME280;59485;43.542;-5.676;2023-04-22T08:46:30;100925.81;;;14.37;100.00
71638;BME280;59485;43.542;-5.676;2023-04-22T08:48:58;100922.84;;;14.71;100.00
71638;BME280;59485;43.542;-5.676;2023-04-22T08:51:30;100919.03;;;14.59;100.00
71638;BME280;59485;43.542;-5.676;2023-04-22T08:53:58;100924.56;;;14.66;100.00
71638;BME280;59485;43.542;-5.676;2023-04-22T08:56:24;100931.97;;;14.85;100.00
71638;BME280;59485;43.542;-5.676;2023-04-22T08:58:51;100923.28;;;14.75;100.00
71638;BME280;59485;43.542;-5.676;2023-04-22T09:01:20;100888.94;;;14.57;100.00
71638;BME280;59485;43.542;-5.676;2023-04-22T09:03:48;100937.25;;;14.86;100.00
71638;BME280;59485;43.542;-5.676;2023-04-22T09:06:15;100897.84;;;14.66;100.00
71638;BME280;59485;43.542;-5.676;2023-04-22T09:08:42;100929.44;;;14.83;100.00
71638;BME280;59485;43.542;-5.676;2023-04-22T09:11:07;100931.09;;;14.97;100.00
71638;BME280;59485;43.542;-5.676;2023-04-22T09:13:33;100898.00;;;14.91;100.00
71638;BME280;59485;43.542;-5.676;2023-04-22T09:16:02;100884.22;;;14.71;100.00
71638;BME280;59485;43.542;-5.676;2023-04-22T09:18:28;100910.19;;;15.21;100.00
71638;BME280;59485;43.542;-5.676;2023-04-22T09:20:55;100891.41;;;14.92;100.00
71638;BME280;59485;43.542;-5.676;2023-04-22T09:23:21;100913.59;;;15.23;100.00
71638;BME280;59485;43.542;-5.676;2023-04-22T09:25:47;100918.34;;;15.10;100.00
71638;BME280;59485;43.542;-5.676;2023-04-22T09:28:17;100912.97;;;15.28;100.00
71638;BME280;59485;43.542;-5.676;2023-04-22T09:30:44;100904.41;;;15.43;100.00
71638;BME280;59485;43.542;-5.676;2023-04-22T09:33:10;100904.94;;;15.71;100.00
71638;BME280;59485;43.542;-5.676;2023-04-22T09:35:42;100871.50;;;15.79;100.00
71638;BME280;59485;43.542;-5.676;2023-04-22T09:38:10;100905.69;;;15.91;100.00
71638;BME280;59485;43.542;-5.676;2023-04-22T09:40:37;100914.09;;;16.03;100.00
71638;BME280;59485;43.542;-5.676;2023-04-22T09:43:06;100910.94;;;15.99;100.00
71638;BME280;59485;43.542;-5.676;2023-04-22T09:45:34;100904.09;;;16.02;100.00
71638;BME280;59485;43.542;-5.676;2023-04-22T09:48:10;100868.69;;;15.86;100.00
71638;BME280;59485;43.542;-5.676;2023-04-22T09:50:43;100901.81;;;16.24;100.00
71638;BME280;59485;43.542;-5.676;2023-04-22T09:55:39;100900.56;;;16.20;100.00
71638;BME280;59485;43.542;-5.676;2023-04-22T09:58:08;100893.13;;;16.20;100.00
71638;BME280;59485;43.542;-5.676;2023-04-22T10:00:40;100888.22;;;16.47;100.00
71638;BME280;59485;43.542;-5.676;2023-04-22T10:03:06;100909.38;;;16.66;100.00
71638;BME280;59485;43.542;-5.676;2023-04-22T10:05:32;100913.53;;;16.75;100.00
71638;BME280;59485;43.542;-5.676;2023-04-22T10:08:05;100890.25;;;16.83;100.00
71638;BME280;59485;43.542;-5.676;2023-04-22T10:10:31;100886.59;;;17.07;100.00
71638;BME280;59485;43.542;-5.676;2023-04-22T10:12:57;100901.66;;;17.48;100.00
71638;BME280;59485;43.542;-5.676;2023-04-22T10:15:23;100892.56;;;17.77;100.00
71638;BME280;59485;43.542;-5.676;2023-04-22T10:17:51;100890.47;;;17.73;100.00
71638;BME280;59485;43.542;-5.676;2023-04-22T10:20:19;100891.03;;;17.63;100.00
71638;BME280;59485;43.542;-5.676;2023-04-22T10:22:46;100892.78;;;17.76;100.00
71638;BME280;59485;43.542;-5.676;2023-04-22T10:25:22;100896.91;;;17.85;100.00
71638;BME280;59485;43.542;-5.676;2023-04-22T10:28:08;100890.13;;;18.11;100.00
71638;BME280;59485;43.542;-5.676;2023-04-22T10:30:35;100871.69;;;18.16;100.00
71638;BME280;59485;43.542;-5.676;2023-04-22T10:38:37;100893.16;;;18.74;100.00
71638;BME280;59485;43.542;-5.676;2023-04-22T10:41:04;100893.41;;;18.61;100.00
71638;BME280;59485;43.542;-5.676;2023-04-22T10:43:45;100896.97;;;18.50;100.00
71638;BME280;59485;43.542;-5.676;2023-04-22T10:49:22;100901.44;;;18.09;100.00
71638;BME280;59485;43.542;-5.676;2023-04-22T10:51:55;100910.31;;;18.29;100.00
71638;BME280;59485;43.542;-5.676;2023-04-22T10:57:12;100912.88;;;18.31;100.00
71638;BME280;59485;43.542;-5.676;2023-04-22T10:59:44;100899.34;;;17.93;100.00
71638;BME280;59485;43.542;-5.676;2023-04-22T11:02:11;100929.69;;;17.76;100.00
71638;BME280;59485;43.542;-5.676;2023-04-22T11:04:37;100913.06;;;17.40;100.00
71638;BME280;59485;43.542;-5.676;2023-04-22T11:09:57;100922.00;;;17.42;100.00
71638;BME280;59485;43.542;-5.676;2023-04-22T11:15:04;100925.59;;;17.24;100.00
71638;BME280;59485;43.542;-5.676;2023-04-22T11:17:30;100921.28;;;17.28;100.00
71638;BME280;59485;43.542;-5.676;2023-04-22T11:19:56;100917.91;;;17.44;100.00
71638;BME280;59485;43.542;-5.676;2023-04-22T11:22:23;100912.97;;;17.46;100.00
71638;BME280;59485;43.542;-5.676;2023-04-22T11:24:55;100920.91;;;17.43;100.00
71638;BME280;59485;43.542;-5.676;2023-04-22T11:27:21;100896.63;;;17.56;100.00
71638;BME280;59485;43.542;-5.676;2023-04-22T11:32:39;100922.91;;;17.36;100.00
71638;BME280;59485;43.542;-5.676;2023-04-22T11:35:10;100916.59;;;17.47;100.00
71638;BME280;59485;43.542;-5.676;2023-04-22T11:40:16;100933.00;;;17.67;100.00
71638;BME280;59485;43.542;-5.676;2023-04-22T11:42:43;100933.75;;;17.55;100.00
71638;BME280;59485;43.542;-5.676;2023-04-22T11:45:09;100938.53;;;17.48;100.00
71638;BME280;59485;43.542;-5.676;2023-04-22T11:47:34;100925.22;;;17.39;100.00
71638;BME280;59485;43.542;-5.676;2023-04-22T11:50:02;100946.06;;;17.23;100.00
71638;BME280;59485;43.542;-5.676;2023-04-22T11:52:52;100939.38;;;17.49;100.00
71638;BME280;59485;43.542;-5.676;2023-04-22T11:55:24;100940.84;;;17.51;100.00
71638;BME280;59485;43.542;-5.676;2023-04-22T11:57:54;100951.44;;;17.36;100.00
71638;BME280;59485;43.542;-5.676;2023-04-22T12:00:21;100949.53;;;17.18;100.00
71638;BME280;59485;43.542;-5.676;2023-04-22T12:08:09;100950.56;;;17.42;100.00
71638;BME280;59485;43.542;-5.676;2023-04-22T12:10:43;100919.31;;;17.17;100.00
71638;BME280;59485;43.542;-5.676;2023-04-22T12:13:09;100938.31;;;17.32;100.00
71638;BME280;59485;43.542;-5.676;2023-04-22T12:18:02;100907.69;;;17.27;100.00
71638;BME280;59485;43.542;-5.676;2023-04-22T12:20:33;100924.28;;;17.08;100.00
71638;BME280;59485;43.542;-5.676;2023-04-22T12:22:58;100919.00;;;17.25;100.00
71638;BME280;59485;43.542;-5.676;2023-04-22T12:25:24;100917.09;;;17.01;100.00
71638;BME280;59485;43.542;-5.676;2023-04-22T12:27:54;100898.81;;;16.81;100.00
71638;BME280;59485;43.542;-5.676;2023-04-22T12:30:21;100947.16;;;17.40;100.00
71638;BME280;59485;43.542;-5.676;2023-04-22T12:32:47;100927.13;;;17.38;100.00
71638;BME280;59485;43.542;-5.676;2023-04-22T12:35:16;100903.25;;;17.37;100.00
71638;BME280;59485;43.542;-5.676;2023-04-22T12:37:42;100936.06;;;17.58;100.00
71638;BME280;59485;43.542;-5.676;2023-04-22T12:40:07;100902.38;;;17.43;100.00
71638;BME280;59485;43.542;-5.676;2023-04-22T12:42:34;100931.81;;;17.56;100.00
71638;BME280;59485;43.542;-5.676;2023-04-22T12:44:59;100930.69;;;17.63;100.00
71638;BME280;59485;43.542;-5.676;2023-04-22T12:47:25;100915.75;;;17.65;100.00
71638;BME280;59485;43.542;-5.676;2023-04-22T12:49:50;100926.25;;;17.63;100.00
71638;BME280;59485;43.542;-5.676;2023-04-22T12:52:16;100916.66;;;17.58;100.00
71638;BME280;59485;43.542;-5.676;2023-04-22T12:54:42;100939.91;;;17.76;100.00
71638;BME280;59485;43.542;-5.676;2023-04-22T12:57:07;100925.72;;;17.84;100.00
71638;BME280;59485;43.542;-5.676;2023-04-22T12:59:33;100908.41;;;17.88;100.00